Für Piloten

Informationen für Piloten zum Flugplatz Borken-Hoxfeld
Hier findest Du alle relevanten Informationen, die Du als Pilot benötigst, um Borken-Hoxfeld anzufliegen.

Flugplatz: Borken-Hoxfeld ICAO-Code: EDLY
Borken-Hoxfeld Info: 122,925 Mhz
GAFOR Gebiet: 32
Platzrunde: Motorflug; -> Südplatzrunde; Segelflug; -> Nordplatzrunde;
Landegebühr: z.Zt. 5,00 Euro
Platzhöhe: 48m üMSL
Pisten: 12/30 – 740 m x 30 m, GRAS
Betriebszeiten: PPR (in den Sommermonaten Mittagspause beachten)

 

Wetterforecast:

Available data for EDDL from the past 2 hours
DUESSELDORF
Metar
EDDL 171450Z 29010KT 240V340 CAVOK 28/11 Q1014 NOSIG

14:50 UTC

Wind: 290° 10kt

Visibility:

Sky:

Temp: 28 deg C / 82.4 deg F

Dewpoint: 11 deg C / 51.8 deg F

Pressure: 1014 hPa

TAF
TAF EDDL 171100Z 1712/1818 27010KT CAVOK BECMG 1719/1722 VRB03KT BECMG 1810/1813 30006KT

Alle obigen Informationen ersetzen nicht die vorgeschriebene, persönliche Flugvorbereitung.